Time;durP1;ratioP1;P1;durP2;ratioP2;P2;SDS_P1;SDS_P2;PMS_P1;PMS_P2;Temp;Humidity;BMP_temperature;BMP_pressure;BME280_temperature;BME280_humidity;BME280_pressure;Samples;Min_cycle;Max_cycle;Signal;HPM_P1;HPM_P2
2023/06/18 00:00:29;;;;;;;32.35;21.25;;;16.80;99.90;;;;;;4975361;28;20050;-70
2023/06/18 00:02:55;;;;;;;30.95;21.52;;;16.70;99.90;;;;;;4975305;28;20051;-70
2023/06/18 00:05:21;;;;;;;33.92;19.50;;;16.70;99.90;;;;;;4975460;28;20046;-70
2023/06/18 00:07:46;;;;;;;30.52;20.17;;;16.70;99.90;;;;;;4975190;28;20035;-70
2023/06/18 00:10:12;;;;;;;30.75;19.95;;;16.70;99.90;;;;;;4974944;28;20041;-70
2023/06/18 00:12:37;;;;;;;30.88;19.77;;;16.70;99.90;;;;;;4975108;28;20043;-70
2023/06/18 00:15:03;;;;;;;31.35;21.25;;;16.70;99.90;;;;;;4974069;28;20407;-70
2023/06/18 00:17:29;;;;;;;28.27;20.05;;;16.60;99.90;;;;;;4974833;28;20082;-70
2023/06/18 00:19:55;;;;;;;31.75;19.40;;;16.60;99.90;;;;;;4974769;28;20085;-70
2023/06/18 00:22:21;;;;;;;30.00;19.27;;;16.80;99.90;;;;;;4975127;28;20050;-70
2023/06/18 00:24:47;;;;;;;26.98;18.15;;;16.60;99.90;;;;;;4973868;28;20526;-70
2023/06/18 00:27:13;;;;;;;30.33;19.75;;;16.70;99.90;;;;;;4974562;28;20038;-70
2023/06/18 00:29:40;;;;;;;28.60;18.92;;;16.80;99.90;;;;;;4974783;28;20510;-70
2023/06/18 00:32:06;;;;;;;29.83;20.30;;;16.70;99.90;;;;;;4975022;28;20046;-70
2023/06/18 00:34:32;;;;;;;27.92;19.25;;;16.80;99.90;;;;;;4974771;28;20198;-70
2023/06/18 00:37:00;;;;;;;30.92;19.77;;;16.60;99.90;;;;;;4974575;28;20176;-70
2023/06/18 00:39:26;;;;;;;33.58;21.25;;;16.60;99.90;;;;;;4974437;28;20411;-70
2023/06/18 00:41:52;;;;;;;28.63;20.70;;;16.70;99.90;;;;;;4974675;28;20058;-70
2023/06/18 00:44:21;;;;;;;30.35;20.40;;;16.60;99.90;;;;;;4974603;28;20031;-70
2023/06/18 00:46:51;;;;;;;29.02;18.92;;;16.70;99.90;;;;;;4974397;28;20049;-70
2023/06/18 00:49:18;;;;;;;31.63;20.75;;;16.60;99.90;;;;;;4974312;28;20058;-70
2023/06/18 00:51:45;;;;;;;29.20;20.88;;;16.60;99.90;;;;;;4974686;28;20042;-70
2023/06/18 00:54:14;;;;;;;29.50;19.60;;;16.50;99.90;;;;;;4974294;28;20050;-70
2023/06/18 00:56:50;;;;;;;33.13;20.83;;;16.50;99.90;;;;;;4974390;28;20046;-70
2023/06/18 00:59:22;;;;;;;29.13;21.30;;;16.40;99.90;;;;;;4974201;28;20073;-70
2023/06/18 01:01:56;;;;;;;32.90;21.00;;;16.40;99.90;;;;;;4974559;28;20047;-70
2023/06/18 01:04:26;;;;;;;;;;;16.30;99.90;;;;;;4974702;28;20047;-70
2023/06/18 01:06:57;;;;;;;31.95;19.50;;;16.40;99.90;;;;;;4973995;28;19922;-70
2023/06/18 01:09:24;;;;;;;30.20;20.00;;;16.40;99.90;;;;;;4973974;28;20034;-70
2023/06/18 01:11:53;;;;;;;30.17;20.48;;;16.30;99.90;;;;;;4974222;28;20503;-70
2023/06/18 01:14:25;;;;;;;30.20;18.80;;;16.40;99.90;;;;;;4974039;28;20077;-70
2023/06/18 01:16:54;;;;;;;32.17;20.33;;;16.40;99.90;;;;;;4973784;28;20043;-70
2023/06/18 01:19:58;;;;;;;31.60;21.50;;;16.30;99.90;;;;;;4973632;28;20055;-70
2023/06/18 01:22:32;;;;;;;29.52;18.88;;;16.30;99.90;;;;;;4974012;28;20035;-70
2023/06/18 01:25:02;;;;;;;28.15;19.58;;;16.30;99.90;;;;;;4973972;28;20045;-70
2023/06/18 01:27:33;;;;;;;27.45;18.50;;;16.20;99.90;;;;;;4973371;28;20494;-70
2023/06/18 01:30:00;;;;;;;26.45;19.10;;;16.20;99.90;;;;;;4973717;28;20093;-70
2023/06/18 01:32:26;;;;;;;26.00;19.48;;;16.30;99.90;;;;;;4973850;28;20043;-70
2023/06/18 01:34:53;;;;;;;26.83;18.67;;;16.20;99.90;;;;;;4973914;28;20063;-70
2023/06/18 01:37:39;;;;;;;28.02;19.02;;;16.20;99.90;;;;;;4973529;28;20125;-70
2023/06/18 01:40:23;;;;;;;28.55;18.73;;;16.20;99.90;;;;;;4973229;28;20045;-70
2023/06/18 01:43:29;;;;;;;27.35;18.83;;;16.10;99.90;;;;;;4972407;28;20053;-71
2023/06/18 01:46:04;;;;;;;29.35;17.67;;;16.20;99.90;;;;;;4973423;28;20414;-70
2023/06/18 01:48:39;;;;;;;26.67;17.75;;;16.10;99.90;;;;;;4973183;28;20475;-70
2023/06/18 01:51:06;;;;;;;29.65;21.83;;;16.10;99.90;;;;;;4973321;28;20053;-70
2023/06/18 01:53:35;;;;;;;30.75;21.02;;;16.00;99.90;;;;;;4973462;28;20046;-70
2023/06/18 01:56:01;;;;;;;30.15;19.77;;;16.00;99.90;;;;;;4973499;28;20097;-70
2023/06/18 01:58:31;;;;;;;29.88;19.55;;;15.90;99.90;;;;;;4971834;28;20047;-70
2023/06/18 02:00:58;;;;;;;30.75;21.10;;;16.00;99.90;;;;;;4971587;28;20137;-70
2023/06/18 02:03:24;;;;;;;33.25;22.13;;;16.00;99.90;;;;;;4973150;28;20689;-70
2023/06/18 02:05:50;;;;;;;34.33;22.15;;;16.00;99.90;;;;;;4973239;28;20042;-70
2023/06/18 02:08:15;;;;;;;31.50;21.90;;;15.90;99.90;;;;;;4972983;28;20042;-70
2023/06/18 02:10:41;;;;;;;33.85;21.08;;;15.90;99.90;;;;;;4972807;28;20043;-70
2023/06/18 02:13:07;;;;;;;30.95;22.27;;;15.90;99.90;;;;;;4973098;28;20047;-70
2023/06/18 02:15:32;;;;;;;34.25;20.92;;;16.00;99.90;;;;;;4972993;28;20463;-70
2023/06/18 02:17:58;;;;;;;34.25;22.05;;;15.90;99.90;;;;;;4972410;28;20514;-70
2023/06/18 02:20:23;;;;;;;38.22;23.45;;;15.90;99.90;;;;;;4972733;28;20031;-70
2023/06/18 02:22:49;;;;;;;32.28;21.80;;;15.90;99.90;;;;;;4973080;28;20030;-70
2023/06/18 02:25:18;;;;;;;36.80;22.50;;;15.90;99.90;;;;;;4972866;28;20035;-70
2023/06/18 02:27:58;;;;;;;34.72;21.48;;;15.80;99.90;;;;;;4972704;28;20039;-70
2023/06/18 02:30:24;;;;;;;41.67;23.25;;;15.90;99.90;;;;;;4972787;28;20035;-69
2023/06/18 02:32:50;;;;;;;34.35;20.23;;;15.80;99.90;;;;;;4972698;28;20034;-69
2023/06/18 02:35:17;;;;;;;35.72;22.73;;;15.70;99.90;;;;;;4973024;28;20061;-69
2023/06/18 02:37:42;;;;;;;35.45;21.48;;;15.70;99.90;;;;;;4972676;28;20118;-69
2023/06/18 02:40:10;;;;;;;30.65;20.17;;;15.80;99.90;;;;;;4972502;28;20420;-69
2023/06/18 02:42:36;;;;;;;36.25;22.30;;;15.80;99.90;;;;;;4972675;28;20042;-69
2023/06/18 02:45:02;;;;;;;32.83;21.05;;;15.80;99.90;;;;;;4972652;28;20562;-69
2023/06/18 02:47:28;;;;;;;35.63;22.80;;;15.60;99.90;;;;;;4972357;28;20043;-69
2023/06/18 02:49:54;;;;;;;36.90;23.23;;;15.70;99.90;;;;;;4972487;28;20034;-69
2023/06/18 02:52:20;;;;;;;35.55;21.30;;;15.70;99.90;;;;;;4972826;28;20035;-69
2023/06/18 02:54:45;;;;;;;37.67;23.73;;;15.70;99.90;;;;;;4971454;28;20108;-70
2023/06/18 02:57:11;;;;;;;37.08;24.00;;;15.40;99.90;;;;;;4972265;28;20130;-70
2023/06/18 02:59:36;;;;;;;34.35;22.90;;;15.40;99.90;;;;;;4972391;28;20043;-69
2023/06/18 03:02:04;;;;;;;37.78;23.45;;;15.40;99.90;;;;;;4972790;28;20443;-69
2023/06/18 03:04:30;;;;;;;40.95;25.10;;;15.50;99.90;;;;;;4972624;28;20054;-69
2023/06/18 03:06:58;;;;;;;36.75;23.27;;;15.50;99.90;;;;;;4972218;28;20039;-70
2023/06/18 03:09:24;;;;;;;37.83;22.35;;;15.30;99.90;;;;;;4971025;28;20042;-69
2023/06/18 03:11:49;;;;;;;37.83;23.40;;;15.30;99.90;;;;;;4972559;28;20047;-69
2023/06/18 03:14:15;;;;;;;42.60;24.70;;;15.40;99.90;;;;;;4972207;28;20442;-69
2023/06/18 03:16:41;;;;;;;38.05;24.58;;;15.40;99.90;;;;;;4972215;28;20051;-69
2023/06/18 03:19:06;;;;;;;37.25;23.77;;;15.30;99.90;;;;;;4972231;28;20683;-70
2023/06/18 03:21:33;;;;;;;35.72;23.48;;;15.40;99.90;;;;;;4972573;28;20601;-69
2023/06/18 03:23:58;;;;;;;35.92;22.58;;;15.30;99.90;;;;;;4972389;28;20035;-69
2023/06/18 03:26:24;;;;;;;38.17;23.13;;;15.40;99.90;;;;;;4971957;28;20145;-69
2023/06/18 03:28:50;;;;;;;40.47;23.65;;;15.50;99.90;;;;;;4974485;28;20050;-69
2023/06/18 03:31:16;;;;;;;35.92;23.17;;;15.40;99.90;;;;;;4975861;28;20043;-70
2023/06/18 03:33:41;;;;;;;34.65;21.58;;;15.40;99.90;;;;;;4975895;28;20039;-69
2023/06/18 03:36:07;;;;;;;37.33;23.02;;;15.40;99.90;;;;;;4976111;28;20098;-69
2023/06/18 03:38:33;;;;;;;38.50;21.92;;;15.30;99.90;;;;;;4975680;28;20046;-69
2023/06/18 03:40:59;;;;;;;38.28;22.75;;;15.10;99.90;;;;;;4975439;28;20566;-69
2023/06/18 03:43:24;;;;;;;35.58;22.58;;;15.00;99.90;;;;;;4975749;28;20034;-69
2023/06/18 03:45:50;;;;;;;45.25;22.17;;;15.00;99.90;;;;;;4975887;28;20125;-69
2023/06/18 03:48:15;;;;;;;44.10;21.98;;;14.90;99.90;;;;;;4975555;28;20128;-70
2023/06/18 03:50:41;;;;;;;33.08;20.38;;;15.00;99.90;;;;;;4975390;28;20042;-69
2023/06/18 03:53:07;;;;;;;34.63;21.23;;;14.90;99.90;;;;;;4975569;28;20035;-69
2023/06/18 03:55:32;;;;;;;40.08;19.75;;;14.90;99.90;;;;;;4975546;28;20055;-69
2023/06/18 03:57:58;;;;;;;32.83;21.25;;;14.80;99.90;;;;;;4975147;28;20097;-69
2023/06/18 04:00:23;;;;;;;33.70;20.63;;;14.90;99.90;;;;;;4975289;28;20086;-69
2023/06/18 04:02:52;;;;;;;34.08;19.83;;;15.00;99.90;;;;;;4975518;28;20506;-69
2023/06/18 04:05:17;;;;;;;30.50;19.52;;;15.00;99.90;;;;;;4975579;28;20047;-69
2023/06/18 04:07:43;;;;;;;34.40;21.77;;;15.10;99.90;;;;;;4975072;28;20043;-69
2023/06/18 04:10:09;;;;;;;35.90;19.48;;;15.10;99.90;;;;;;4974840;28;20043;-69
2023/06/18 04:12:34;;;;;;;35.13;19.30;;;15.10;99.90;;;;;;4975262;28;20070;-70
2023/06/18 04:15:00;;;;;;;30.38;18.95;;;15.00;99.90;;;;;;4975233;28;20038;-70
2023/06/18 04:17:26;;;;;;;29.75;18.75;;;15.10;99.90;;;;;;4975010;28;20466;-69
2023/06/18 04:19:52;;;;;;;27.70;18.25;;;15.10;99.90;;;;;;4974886;28;20045;-69
2023/06/18 04:22:18;;;;;;;30.17;18.05;;;15.00;99.90;;;;;;4975158;28;20406;-69
2023/06/18 04:24:43;;;;;;;31.20;18.63;;;15.10;99.90;;;;;;4974985;28;20491;-69
2023/06/18 04:27:09;;;;;;;25.10;17.38;;;15.00;99.90;;;;;;4974916;28;20410;-69
2023/06/18 04:29:34;;;;;;;29.33;18.38;;;15.20;99.90;;;;;;4974755;28;20110;-69
2023/06/18 04:32:00;;;;;;;24.88;17.13;;;15.30;99.90;;;;;;4975094;28;20027;-69
2023/06/18 04:34:25;;;;;;;29.00;19.45;;;15.20;99.90;;;;;;4974817;28;20519;-70
2023/06/18 04:36:51;;;;;;;26.83;17.67;;;15.30;99.90;;;;;;4974659;28;20495;-69
2023/06/18 04:39:17;;;;;;;27.92;17.92;;;15.40;99.90;;;;;;4974298;28;20035;-69
2023/06/18 04:41:42;;;;;;;29.10;19.55;;;15.30;99.90;;;;;;4974627;28;20047;-69
2023/06/18 04:44:10;;;;;;;27.80;17.17;;;15.30;99.90;;;;;;4974900;28;20065;-69
2023/06/18 04:46:36;;;;;;;29.52;17.50;;;15.40;99.90;;;;;;4973768;28;20550;-69
2023/06/18 04:49:02;;;;;;;25.25;17.70;;;15.30;99.90;;;;;;4974371;28;20113;-69
2023/06/18 04:51:27;;;;;;;24.55;16.25;;;15.50;99.90;;;;;;4974483;28;20081;-69
2023/06/18 04:53:53;;;;;;;29.55;18.60;;;15.60;99.90;;;;;;4974264;28;20035;-69
2023/06/18 04:56:19;;;;;;;28.67;18.35;;;15.50;99.90;;;;;;4974607;28;20054;-69
2023/06/18 04:58:44;;;;;;;28.13;18.17;;;15.70;99.90;;;;;;4972973;28;20046;-69
2023/06/18 05:01:10;;;;;;;27.92;18.55;;;15.70;99.90;;;;;;4974057;28;20251;-69
2023/06/18 05:03:36;;;;;;;28.83;19.48;;;15.70;99.90;;;;;;4974370;28;20035;-70
2023/06/18 05:06:02;;;;;;;30.60;20.33;;;15.90;99.90;;;;;;4973089;28;20514;-68
2023/06/18 05:08:28;;;;;;;24.13;17.73;;;15.90;99.90;;;;;;4973747;28;20046;-69
2023/06/18 05:10:53;;;;;;;25.63;16.92;;;15.90;99.90;;;;;;4973992;28;20046;-69
2023/06/18 05:13:19;;;;;;;26.17;17.30;;;16.10;99.90;;;;;;4973089;28;20035;-69
2023/06/18 05:15:45;;;;;;;20.98;15.63;;;16.20;99.90;;;;;;4974333;28;20078;-69
2023/06/18 05:18:11;;;;;;;23.40;16.15;;;16.40;99.90;;;;;;4972180;28;20085;-69
2023/06/18 05:20:36;;;;;;;20.52;14.82;;;16.30;99.90;;;;;;4972385;28;20568;-69
2023/06/18 05:23:02;;;;;;;27.60;14.30;;;16.50;99.90;;;;;;4973844;28;20077;-69
2023/06/18 05:25:27;;;;;;;18.67;14.15;;;16.60;99.90;;;;;;4972613;28;20070;-69
2023/06/18 05:27:53;;;;;;;19.27;14.00;;;16.90;99.90;;;;;;4972400;28;20466;-69
2023/06/18 05:30:18;;;;;;;23.65;14.82;;;17.10;99.90;;;;;;4973638;28;20041;-69
2023/06/18 05:32:44;;;;;;;16.30;12.88;;;17.20;99.90;;;;;;4973737;28;20102;-69
2023/06/18 05:35:09;;;;;;;17.95;13.38;;;17.30;99.90;;;;;;4972643;28;20134;-69
2023/06/18 05:37:35;;;;;;;18.95;13.65;;;17.60;99.90;;;;;;4973345;28;20038;-69
2023/06/18 05:40:01;;;;;;;17.73;12.88;;;17.70;99.90;;;;;;4973315;28;20114;-69
2023/06/18 05:42:26;;;;;;;18.42;13.73;;;17.80;99.90;;;;;;4973574;28;20042;-69
2023/06/18 05:44:52;;;;;;;17.60;12.73;;;17.90;99.90;;;;;;4973296;28;20263;-69
2023/06/18 05:47:18;;;;;;;16.98;13.05;;;18.20;99.90;;;;;;4973165;28;20058;-69
2023/06/18 05:49:43;;;;;;;19.08;14.38;;;18.40;99.90;;;;;;4973175;28;20045;-69
2023/06/18 05:52:09;;;;;;;19.58;14.02;;;18.70;99.90;;;;;;4972533;28;20113;-69
2023/06/18 05:54:35;;;;;;;19.60;14.02;;;18.80;99.90;;;;;;4973368;28;20038;-70
2023/06/18 05:57:00;;;;;;;19.73;14.48;;;19.10;99.90;;;;;;4972980;28;20414;-69
2023/06/18 05:59:26;;;;;;;19.38;14.63;;;19.10;99.90;;;;;;4972999;28;20047;-69
2023/06/18 06:01:52;;;;;;;19.90;14.48;;;19.20;99.90;;;;;;4973407;28;20038;-70
2023/06/18 06:04:19;;;;;;;22.10;15.02;;;19.40;99.90;;;;;;4973269;28;20038;-69
2023/06/18 06:06:45;;;;;;;21.08;14.98;;;19.50;99.90;;;;;;4972757;28;20039;-69
2023/06/18 06:09:10;;;;;;;20.80;14.50;;;19.50;99.90;;;;;;4972965;28;20041;-70
2023/06/18 06:11:37;;;;;;;17.75;14.00;;;19.50;99.90;;;;;;4973164;28;20110;-69
2023/06/18 06:14:03;;;;;;;18.95;14.48;;;19.70;99.90;;;;;;4973181;28;20050;-69
2023/06/18 06:16:28;;;;;;;20.83;15.13;;;19.70;99.90;;;;;;4972802;28;20065;-69
2023/06/18 06:18:54;;;;;;;19.05;14.32;;;19.80;99.90;;;;;;4973070;28;20078;-70
2023/06/18 06:21:19;;;;;;;20.33;14.57;;;19.90;99.90;;;;;;4972616;28;20053;-69
2023/06/18 06:23:45;;;;;;;19.45;14.88;;;20.10;99.90;;;;;;4955531;28;20100;-70
2023/06/18 06:26:11;;;;;;;17.52;14.07;;;20.10;99.90;;;;;;4973212;28;20081;-70
2023/06/18 06:28:37;;;;;;;18.20;14.95;;;20.20;99.90;;;;;;4971405;28;20586;-70
2023/06/18 06:31:02;;;;;;;21.63;16.25;;;20.40;99.90;;;;;;4972649;28;20083;-69
2023/06/18 06:33:29;;;;;;;21.52;13.73;;;20.30;99.90;;;;;;4971449;28;20411;-70
2023/06/18 06:35:55;;;;;;;19.85;14.13;;;20.50;99.90;;;;;;4972787;28;20132;-70
2023/06/18 06:38:21;;;;;;;22.30;13.88;;;20.50;99.90;;;;;;4971241;28;20097;-70
2023/06/18 06:40:46;;;;;;;18.73;14.13;;;20.60;99.90;;;;;;4972705;28;20403;-70
2023/06/18 06:43:12;;;;;;;20.38;14.00;;;20.80;99.90;;;;;;4972884;28;20126;-70
2023/06/18 06:45:37;;;;;;;19.17;13.85;;;21.00;99.90;;;;;;4972733;28;20125;-70
2023/06/18 06:48:03;;;;;;;18.65;13.82;;;21.20;99.90;;;;;;4972407;28;20050;-70
2023/06/18 06:50:29;;;;;;;19.35;13.30;;;21.30;99.90;;;;;;4970873;28;20038;-70
2023/06/18 06:52:54;;;;;;;18.60;13.88;;;21.50;99.90;;;;;;4972790;28;20038;-70
2023/06/18 06:55:20;;;;;;;19.30;14.98;;;21.60;99.90;;;;;;4972681;28;20046;-70
2023/06/18 06:57:45;;;;;;;18.90;14.68;;;21.70;99.90;;;;;;4972420;28;20074;-70
2023/06/18 07:00:11;;;;;;;17.52;13.35;;;21.80;99.90;;;;;;4972392;28;20046;-69
2023/06/18 07:02:37;;;;;;;20.15;13.88;;;22.00;99.90;;;;;;4972644;28;20066;-70
2023/06/18 07:05:04;;;;;;;18.92;12.65;;;22.30;99.90;;;;;;4976459;28;20043;-70
2023/06/18 07:07:30;;;;;;;17.92;14.80;;;22.40;99.90;;;;;;4976307;28;20050;-70
2023/06/18 07:09:55;;;;;;;19.08;13.55;;;22.50;99.90;;;;;;4976102;28;20038;-69
2023/06/18 07:12:21;;;;;;;15.63;12.43;;;22.60;99.90;;;;;;4976480;28;20039;-70
2023/06/18 07:14:46;;;;;;;19.10;14.27;;;22.80;99.90;;;;;;4976517;28;20098;-70
2023/06/18 07:17:12;;;;;;;23.20;13.75;;;22.90;99.90;;;;;;4976066;28;20051;-70
2023/06/18 07:19:38;;;;;;;17.88;13.05;;;23.20;99.90;;;;;;4975811;28;20045;-70
2023/06/18 07:22:03;;;;;;;18.23;11.82;;;23.30;99.90;;;;;;4976418;28;20046;-70
2023/06/18 07:24:29;;;;;;;16.98;12.95;;;23.40;99.90;;;;;;4978653;28;20039;-70
2023/06/18 07:26:55;;;;;;;16.15;12.63;;;23.50;99.90;;;;;;4975842;28;20064;-70
2023/06/18 07:29:21;;;;;;;19.98;13.15;;;23.60;99.90;;;;;;4982009;28;20646;-71
2023/06/18 07:31:46;;;;;;;15.35;12.65;;;23.40;99.90;;;;;;4985196;28;20034;-70
2023/06/18 07:34:12;;;;;;;17.48;12.77;;;23.40;99.90;;;;;;4975327;28;20054;-70
2023/06/18 07:36:37;;;;;;;15.40;11.65;;;23.40;99.90;;;;;;4984234;28;20034;-70
2023/06/18 07:39:03;;;;;;;16.40;12.05;;;23.40;99.90;;;;;;4984957;28;20121;-70
2023/06/18 07:41:28;;;;;;;18.00;12.43;;;23.70;99.90;;;;;;4975647;28;20066;-70
2023/06/18 07:43:54;;;;;;;15.48;12.68;;;23.50;99.90;;;;;;4986128;28;20038;-70
2023/06/18 07:46:20;;;;;;;16.60;12.50;;;23.60;99.90;;;;;;4975031;28;20042;-71
2023/06/18 07:48:45;;;;;;;15.98;11.50;;;23.80;99.90;;;;;;4984801;28;20042;-70
2023/06/18 07:51:11;;;;;;;17.65;12.52;;;24.10;99.90;;;;;;4983867;28;20066;-70
2023/06/18 07:53:39;;;;;;;17.85;13.00;;;24.20;99.90;;;;;;4975248;28;20093;-70
2023/06/18 07:56:05;;;;;;;16.02;12.50;;;24.20;99.90;;;;;;4978574;28;20093;-70
2023/06/18 07:58:30;;;;;;;19.10;12.45;;;24.30;99.60;;;;;;4933753;28;20363;-70
2023/06/18 08:00:56;;;;;;;17.92;12.52;;;24.50;99.10;;;;;;4932546;28;20151;-70
2023/06/18 08:03:22;;;;;;;13.80;10.55;;;24.40;98.80;;;;;;4926994;28;20489;-71
2023/06/18 08:05:48;;;;;;;14.80;10.80;;;24.60;98.40;;;;;;4930669;28;20210;-71
2023/06/18 08:08:14;;;;;;;14.80;10.90;;;24.60;98.00;;;;;;4933219;28;20038;-71
2023/06/18 08:10:40;;;;;;;14.90;11.00;;;24.70;98.30;;;;;;4932704;28;20182;-70
2023/06/18 08:13:05;;;;;;;18.27;11.75;;;24.80;97.60;;;;;;4932749;28;20042;-69
2023/06/18 08:15:31;;;;;;;18.15;12.35;;;24.90;97.50;;;;;;4932135;28;20038;-69
2023/06/18 08:17:56;;;;;;;15.82;11.50;;;25.10;97.10;;;;;;4933058;28;20297;-70
2023/06/18 08:20:22;;;;;;;16.80;11.60;;;25.30;96.60;;;;;;4934269;28;20470;-70
2023/06/18 08:22:48;;;;;;;14.00;10.32;;;25.40;96.30;;;;;;4934605;28;20114;-70
2023/06/18 08:25:13;;;;;;;14.20;11.55;;;25.60;95.60;;;;;;4934343;28;20081;-70
2023/06/18 08:27:39;;;;;;;11.65;10.20;;;26.00;94.60;;;;;;4934445;28;20310;-70
2023/06/18 08:30:05;;;;;;;14.98;10.85;;;26.20;94.50;;;;;;4935182;28;20054;-69
2023/06/18 08:32:31;;;;;;;17.60;11.40;;;26.40;93.40;;;;;;4935584;28;20061;-70
2023/06/18 08:34:57;;;;;;;14.38;11.95;;;26.40;92.90;;;;;;4937358;28;20210;-69
2023/06/18 08:37:22;;;;;;;13.07;10.45;;;26.40;92.40;;;;;;4935030;28;20361;-69
2023/06/18 08:39:48;;;;;;;13.07;9.82;;;26.70;91.90;;;;;;4934174;28;20039;-69
2023/06/18 08:42:20;;;;;;;14.07;10.02;;;26.80;91.70;;;;;;4934141;28;20146;-70
2023/06/18 08:44:46;;;;;;;16.27;12.27;;;27.20;90.70;;;;;;4932031;28;20451;-69
2023/06/18 08:47:12;;;;;;;17.42;11.48;;;27.10;90.50;;;;;;4931461;28;20297;-69
2023/06/18 08:49:41;;;;;;;16.77;12.00;;;27.50;90.80;;;;;;4932836;28;20879;-70
2023/06/18 08:52:10;;;;;;;16.70;12.15;;;27.70;90.00;;;;;;4930510;28;20570;-69
2023/06/18 08:54:37;;;;;;;13.50;10.50;;;27.60;88.60;;;;;;4932161;28;20051;-70
2023/06/18 08:57:14;;;;;;;16.92;12.32;;;27.70;88.10;;;;;;4932851;28;20046;-68
2023/06/18 08:59:42;;;;;;;14.00;11.40;;;28.00;86.90;;;;;;4931053;28;20549;-71
2023/06/18 09:02:11;;;;;;;14.18;10.50;;;28.00;86.80;;;;;;4933741;28;20042;-70
2023/06/18 09:04:37;;;;;;;16.52;11.57;;;28.10;85.50;;;;;;4932214;28;20042;-69
2023/06/18 09:07:03;;;;;;;11.70;10.07;;;28.00;84.20;;;;;;4933115;28;20062;-69
2023/06/18 09:09:29;;;;;;;15.18;10.57;;;28.10;84.40;;;;;;4932821;28;20038;-69
2023/06/18 09:11:56;;;;;;;12.32;10.15;;;28.30;83.10;;;;;;4933080;28;20042;-69
2023/06/18 09:14:23;;;;;;;13.02;10.15;;;28.30;81.10;;;;;;4932485;28;20038;-69
2023/06/18 09:16:49;;;;;;;13.52;10.60;;;28.50;80.30;;;;;;4932778;28;20046;-69
2023/06/18 09:19:16;;;;;;;12.65;10.40;;;28.50;78.20;;;;;;4932682;28;20042;-69
2023/06/18 09:21:45;;;;;;;12.98;10.18;;;28.60;78.70;;;;;;4889681;28;20496;-69
2023/06/18 09:24:24;;;;;;;15.50;10.85;;;28.40;75.60;;;;;;4851433;28;20467;-69
2023/06/18 09:27:01;;;;;;;12.57;10.52;;;28.40;75.40;;;;;;4861622;28;20260;-70
2023/06/18 09:29:33;;;;;;;12.80;9.93;;;28.40;73.40;;;;;;4931222;28;20039;-70
2023/06/18 09:32:10;;;;;;;11.18;9.18;;;28.40;73.60;;;;;;4931113;28;20946;-71
2023/06/18 09:34:36;;;;;;;12.65;9.00;;;28.40;72.40;;;;;;4932027;28;20142;-72
2023/06/18 09:37:04;;;;;;;12.00;8.60;;;28.50;73.50;;;;;;4916072;28;20205;-70
2023/06/18 09:39:29;;;;;;;10.85;8.70;;;28.50;71.90;;;;;;4913370;28;20321;-71
2023/06/18 09:41:55;;;;;;;13.07;10.25;;;28.60;71.80;;;;;;4913168;28;20884;-71
2023/06/18 09:44:22;;;;;;;11.65;9.35;;;28.70;72.10;;;;;;4912812;28;20118;-71
2023/06/18 09:46:58;;;;;;;15.80;10.63;;;28.70;72.50;;;;;;4904539;28;20047;-71
2023/06/18 09:49:26;;;;;;;14.02;10.15;;;28.60;70.20;;;;;;4911149;29;20043;-71
2023/06/18 09:51:53;;;;;;;13.05;9.35;;;28.60;71.10;;;;;;4910187;29;20142;-71
2023/06/18 09:54:20;;;;;;;11.15;8.43;;;28.80;70.40;;;;;;4909198;28;20871;-71
2023/06/18 09:57:01;;;;;;;11.73;8.60;;;28.90;68.40;;;;;;4912228;28;20094;-72
2023/06/18 09:59:27;;;;;;;9.15;6.88;;;28.80;65.30;;;;;;4913386;28;20047;-71
2023/06/18 10:01:54;;;;;;;9.05;7.53;;;28.80;64.80;;;;;;4912545;28;20047;-71
2023/06/18 10:04:20;;;;;;;8.40;7.07;;;29.00;63.20;;;;;;4912080;28;20051;-70
2023/06/18 10:07:16;;;;;;;8.43;7.18;;;29.00;62.20;;;;;;4910070;28;20207;-71
2023/06/18 10:09:44;;;;;;;8.50;7.63;;;29.30;60.40;;;;;;4912608;28;20054;-70
2023/06/18 10:12:13;;;;;;;8.38;6.80;;;29.50;61.20;;;;;;4914415;28;20043;-71
2023/06/18 10:14:40;;;;;;;7.55;6.07;;;29.30;58.60;;;;;;4911567;28;20225;-71
2023/06/18 10:17:10;;;;;;;8.93;6.60;;;29.30;57.40;;;;;;4917836;28;20038;-70
2023/06/18 10:20:06;;;;;;;9.65;7.25;;;29.20;56.50;;;;;;4932632;28;20058;-70
2023/06/18 10:22:48;;;;;;;7.95;6.15;;;29.10;54.70;;;;;;4926846;28;20050;-71
2023/06/18 10:25:15;;;;;;;;;;;28.90;54.30;;;;;;4930219;28;20381;-71
2023/06/18 10:27:41;;;;;;;7.40;5.97;;;28.70;50.20;;;;;;4931838;28;19922;-69
2023/06/18 10:30:08;;;;;;;7.32;5.78;;;28.80;53.10;;;;;;4932089;28;20035;-69
2023/06/18 10:32:35;;;;;;;7.22;6.25;;;29.00;52.90;;;;;;4930660;28;20631;-69
2023/06/18 10:35:04;;;;;;;6.15;5.55;;;29.00;52.20;;;;;;4930429;28;20043;-71
2023/06/18 10:37:31;;;;;;;8.40;5.95;;;29.00;52.40;;;;;;4932033;28;20922;-70
2023/06/18 10:39:58;;;;;;;9.18;6.35;;;29.00;51.20;;;;;;4932469;28;20055;-70
2023/06/18 10:42:23;;;;;;;8.52;5.88;;;28.90;50.60;;;;;;4932473;28;20279;-69
2023/06/18 10:44:57;;;;;;;8.25;6.55;;;29.10;51.60;;;;;;4931726;28;20964;-70
2023/06/18 10:47:26;;;;;;;33.78;30.40;;;29.10;49.10;;;;;;4930412;28;20061;-70
2023/06/18 10:50:00;;;;;;;7.28;6.45;;;29.20;50.10;;;;;;4930006;28;20665;-71
2023/06/18 10:52:29;;;;;;;8.00;6.47;;;29.40;50.20;;;;;;4931045;28;20038;-69
2023/06/18 10:55:04;;;;;;;7.38;6.55;;;29.30;50.00;;;;;;4931148;28;20137;-69
2023/06/18 10:57:30;;;;;;;7.80;6.13;;;29.20;49.70;;;;;;4931537;28;20053;-70
2023/06/18 10:59:56;;;;;;;8.13;6.80;;;29.40;49.60;;;;;;4930055;28;20153;-70
2023/06/18 11:02:34;;;;;;;7.57;6.63;;;29.40;49.00;;;;;;4932521;28;20049;-70
2023/06/18 11:05:00;;;;;;;7.30;6.60;;;29.10;48.30;;;;;;4931603;28;20197;-70
2023/06/18 11:07:27;;;;;;;9.38;6.97;;;28.80;48.40;;;;;;4913869;28;20960;-70
2023/06/18 11:09:59;;;;;;;7.90;6.38;;;28.90;48.90;;;;;;4930071;28;20061;-69
2023/06/18 11:12:30;;;;;;;6.78;6.03;;;29.00;49.40;;;;;;4930362;28;20237;-70
2023/06/18 11:15:15;;;;;;;9.50;6.38;;;29.20;48.60;;;;;;4930404;28;20039;-70
2023/06/18 11:17:42;;;;;;;8.05;6.05;;;29.20;48.00;;;;;;4930839;28;20046;-70
2023/06/18 11:20:10;;;;;;;8.23;6.30;;;29.10;47.30;;;;;;4930995;28;20038;-71
2023/06/18 11:22:37;;;;;;;9.18;6.18;;;29.20;47.60;;;;;;4929885;28;20073;-71
2023/06/18 11:25:05;;;;;;;7.43;6.22;;;29.10;47.20;;;;;;4930697;28;20058;-71
2023/06/18 11:27:32;;;;;;;8.30;6.20;;;29.00;46.90;;;;;;4917122;28;20478;-71
2023/06/18 11:29:58;;;;;;;8.75;6.22;;;29.00;47.40;;;;;;4929630;28;20039;-70
2023/06/18 11:32:25;;;;;;;8.07;6.32;;;29.00;47.10;;;;;;4930636;28;20607;-71
2023/06/18 11:34:53;;;;;;;8.00;6.22;;;29.10;46.90;;;;;;4902201;23;20425;-69
2023/06/18 11:37:19;;;;;;;9.38;6.05;;;29.00;46.20;;;;;;4859102;28;20404;-69
2023/06/18 11:39:49;;;;;;;7.03;6.18;;;29.10;46.20;;;;;;4860080;28;20309;-69
2023/06/18 11:42:19;;;;;;;8.13;6.55;;;29.20;46.90;;;;;;4843417;28;20264;-68
2023/06/18 11:44:50;;;;;;;7.60;5.90;;;29.20;48.00;;;;;;4845611;28;20378;-69
2023/06/18 11:47:17;;;;;;;8.63;6.28;;;29.20;49.20;;;;;;4841430;28;20361;-69
2023/06/18 11:49:47;;;;;;;7.53;5.97;;;29.00;47.40;;;;;;4861069;28;20205;-69
2023/06/18 11:52:17;;;;;;;7.43;6.25;;;29.00;47.80;;;;;;4862919;28;20370;-68
2023/06/18 11:54:44;;;;;;;9.95;6.97;;;29.00;46.90;;;;;;4848057;28;20420;-69
2023/06/18 11:57:12;;;;;;;8.60;6.75;;;29.00;46.40;;;;;;4848630;28;20428;-67
2023/06/18 11:59:41;;;;;;;7.85;6.07;;;28.90;45.70;;;;;;4863545;28;20384;-68
2023/06/18 12:02:12;;;;;;;6.70;6.05;;;28.90;45.70;;;;;;4897207;28;20531;-69
2023/06/18 12:04:38;;;;;;;7.35;6.35;;;28.90;45.90;;;;;;4931034;28;20046;-68
2023/06/18 12:07:04;;;;;;;7.28;6.07;;;28.90;46.00;;;;;;4933907;28;20043;-68
2023/06/18 12:09:33;;;;;;;8.00;6.72;;;29.00;46.10;;;;;;4933432;28;20264;-69
2023/06/18 12:12:20;;;;;;;7.45;6.10;;;29.00;45.90;;;;;;4933462;28;20054;-68
2023/06/18 12:15:09;;;;;;;8.20;6.60;;;28.90;44.90;;;;;;4933598;28;20348;-68
2023/06/18 12:17:50;;;;;;;9.57;6.80;;;28.80;45.10;;;;;;4933746;28;20581;-69
2023/06/18 12:20:19;;;;;;;7.72;6.65;;;28.90;44.60;;;;;;4933664;28;20091;-69
2023/06/18 12:22:45;;;;;;;7.57;6.35;;;28.90;44.70;;;;;;4933493;28;20047;-70
2023/06/18 12:25:11;;;;;;;10.85;6.70;;;28.90;45.10;;;;;;4933906;28;20081;-70
2023/06/18 12:27:39;;;;;;;8.27;6.65;;;29.00;45.00;;;;;;4932055;28;20047;-70
2023/06/18 12:30:06;;;;;;;7.72;6.00;;;29.10;45.00;;;;;;4934742;28;20046;-70
2023/06/18 12:32:33;;;;;;;7.47;6.72;;;29.10;46.60;;;;;;4918042;28;20039;-70